sensor_id;sensor_type;location;lat;lon;timestamp;P1;durP1;ratioP1;P2;durP2;ratioP2
24305;SDS011;12423;48.768;8.850;2023-04-25T00:00:06;7.85;;;2.17;;
24305;SDS011;12423;48.768;8.850;2023-04-25T00:02:12;7.28;;;2.30;;
24305;SDS011;12423;48.768;8.850;2023-04-25T00:04:13;4.95;;;2.40;;
24305;SDS011;12423;48.768;8.850;2023-04-25T00:06:15;5.70;;;2.55;;
24305;SDS011;12423;48.768;8.850;2023-04-25T00:08:16;6.80;;;2.17;;
24305;SDS011;12423;48.768;8.850;2023-04-25T00:10:17;3.53;;;1.90;;
24305;SDS011;12423;48.768;8.850;2023-04-25T00:12:19;5.47;;;2.50;;
24305;SDS011;12423;48.768;8.850;2023-04-25T00:14:22;6.95;;;2.15;;
24305;SDS011;12423;48.768;8.850;2023-04-25T00:16:23;5.85;;;2.38;;
24305;SDS011;12423;48.768;8.850;2023-04-25T00:18:24;6.90;;;2.35;;
24305;SDS011;12423;48.768;8.850;2023-04-25T00:20:25;6.15;;;2.60;;
24305;SDS011;12423;48.768;8.850;2023-04-25T00:22:27;5.63;;;2.67;;
24305;SDS011;12423;48.768;8.850;2023-04-25T00:24:28;4.72;;;2.38;;
24305;SDS011;12423;48.768;8.850;2023-04-25T00:26:29;5.45;;;2.78;;
24305;SDS011;12423;48.768;8.850;2023-04-25T00:28:30;6.18;;;2.92;;
24305;SDS011;12423;48.768;8.850;2023-04-25T00:30:31;6.30;;;2.22;;
24305;SDS011;12423;48.768;8.850;2023-04-25T00:32:32;4.50;;;2.40;;
24305;SDS011;12423;48.768;8.850;2023-04-25T00:34:33;4.22;;;2.33;;
24305;SDS011;12423;48.768;8.850;2023-04-25T00:36:34;5.85;;;2.58;;
24305;SDS011;12423;48.768;8.850;2023-04-25T00:38:36;8.77;;;2.65;;
24305;SDS011;12423;48.768;8.850;2023-04-25T00:40:38;5.13;;;2.38;;
24305;SDS011;12423;48.768;8.850;2023-04-25T00:42:39;3.95;;;2.13;;
24305;SDS011;12423;48.768;8.850;2023-04-25T00:44:41;5.82;;;2.47;;
24305;SDS011;12423;48.768;8.850;2023-04-25T00:46:43;4.32;;;2.28;;
24305;SDS011;12423;48.768;8.850;2023-04-25T00:48:45;4.13;;;1.77;;
24305;SDS011;12423;48.768;8.850;2023-04-25T00:50:49;4.45;;;2.45;;
24305;SDS011;12423;48.768;8.850;2023-04-25T00:52:54;4.55;;;2.47;;
24305;SDS011;12423;48.768;8.850;2023-04-25T00:54:55;6.80;;;2.75;;
24305;SDS011;12423;48.768;8.850;2023-04-25T00:56:56;5.53;;;2.28;;
24305;SDS011;12423;48.768;8.850;2023-04-25T00:58:58;5.15;;;2.25;;
24305;SDS011;12423;48.768;8.850;2023-04-25T01:00:59;5.93;;;2.20;;
24305;SDS011;12423;48.768;8.850;2023-04-25T01:03:00;7.53;;;2.83;;
24305;SDS011;12423;48.768;8.850;2023-04-25T01:05:04;4.80;;;2.15;;
24305;SDS011;12423;48.768;8.850;2023-04-25T01:07:05;5.20;;;2.25;;
24305;SDS011;12423;48.768;8.850;2023-04-25T01:09:06;7.47;;;2.50;;
24305;SDS011;12423;48.768;8.850;2023-04-25T01:11:08;6.65;;;2.65;;
24305;SDS011;12423;48.768;8.850;2023-04-25T01:13:09;4.30;;;2.17;;
24305;SDS011;12423;48.768;8.850;2023-04-25T01:15:10;5.25;;;2.47;;
24305;SDS011;12423;48.768;8.850;2023-04-25T01:17:11;7.32;;;2.90;;
24305;SDS011;12423;48.768;8.850;2023-04-25T01:19:13;6.70;;;2.40;;
24305;SDS011;12423;48.768;8.850;2023-04-25T01:21:17;4.45;;;2.30;;
24305;SDS011;12423;48.768;8.850;2023-04-25T01:23:22;4.93;;;2.03;;
24305;SDS011;12423;48.768;8.850;2023-04-25T01:25:24;3.75;;;2.03;;
24305;SDS011;12423;48.768;8.850;2023-04-25T01:27:25;6.25;;;2.40;;
24305;SDS011;12423;48.768;8.850;2023-04-25T01:29:27;5.78;;;2.75;;
24305;SDS011;12423;48.768;8.850;2023-04-25T01:31:29;5.18;;;2.33;;
24305;SDS011;12423;48.768;8.850;2023-04-25T01:33:30;5.50;;;2.63;;
24305;SDS011;12423;48.768;8.850;2023-04-25T01:35:32;5.78;;;2.63;;
24305;SDS011;12423;48.768;8.850;2023-04-25T01:37:33;5.88;;;2.60;;
24305;SDS011;12423;48.768;8.850;2023-04-25T01:39:34;6.07;;;2.67;;
24305;SDS011;12423;48.768;8.850;2023-04-25T01:41:35;5.40;;;2.45;;
24305;SDS011;12423;48.768;8.850;2023-04-25T01:43:37;6.93;;;2.97;;
24305;SDS011;12423;48.768;8.850;2023-04-25T01:45:38;5.90;;;2.50;;
24305;SDS011;12423;48.768;8.850;2023-04-25T01:47:41;5.70;;;2.67;;
24305;SDS011;12423;48.768;8.850;2023-04-25T01:49:44;5.45;;;2.65;;
24305;SDS011;12423;48.768;8.850;2023-04-25T01:51:45;6.00;;;2.75;;
24305;SDS011;12423;48.768;8.850;2023-04-25T01:53:46;5.70;;;2.92;;
24305;SDS011;12423;48.768;8.850;2023-04-25T01:55:48;6.63;;;3.00;;
24305;SDS011;12423;48.768;8.850;2023-04-25T01:57:52;7.47;;;3.00;;
24305;SDS011;12423;48.768;8.850;2023-04-25T01:59:59;6.05;;;2.97;;
24305;SDS011;12423;48.768;8.850;2023-04-25T02:02:15;7.20;;;3.83;;
24305;SDS011;12423;48.768;8.850;2023-04-25T02:04:16;6.18;;;4.10;;
24305;SDS011;12423;48.768;8.850;2023-04-25T02:06:18;7.03;;;2.78;;
24305;SDS011;12423;48.768;8.850;2023-04-25T02:08:21;95.03;;;88.03;;
24305;SDS011;12423;48.768;8.850;2023-04-25T02:10:22;7.15;;;3.63;;
24305;SDS011;12423;48.768;8.850;2023-04-25T02:12:30;6.55;;;2.58;;
24305;SDS011;12423;48.768;8.850;2023-04-25T02:14:53;9.88;;;5.45;;
24305;SDS011;12423;48.768;8.850;2023-04-25T02:17:10;8.38;;;3.67;;
24305;SDS011;12423;48.768;8.850;2023-04-25T02:19:12;6.57;;;2.83;;
24305;SDS011;12423;48.768;8.850;2023-04-25T02:21:14;5.55;;;3.97;;
24305;SDS011;12423;48.768;8.850;2023-04-25T02:23:17;160.45;;;151.02;;
24305;SDS011;12423;48.768;8.850;2023-04-25T02:25:19;177.43;;;166.40;;
24305;SDS011;12423;48.768;8.850;2023-04-25T02:27:20;152.23;;;142.68;;
24305;SDS011;12423;48.768;8.850;2023-04-25T02:29:22;13.32;;;11.85;;
24305;SDS011;12423;48.768;8.850;2023-04-25T02:31:24;103.57;;;98.00;;
24305;SDS011;12423;48.768;8.850;2023-04-25T02:33:25;161.15;;;151.88;;
24305;SDS011;12423;48.768;8.850;2023-04-25T02:35:26;166.05;;;155.95;;
24305;SDS011;12423;48.768;8.850;2023-04-25T02:37:28;128.30;;;121.20;;
24305;SDS011;12423;48.768;8.850;2023-04-25T02:39:30;127.15;;;120.20;;
24305;SDS011;12423;48.768;8.850;2023-04-25T02:41:31;110.72;;;105.13;;
24305;SDS011;12423;48.768;8.850;2023-04-25T02:43:32;121.45;;;114.97;;
24305;SDS011;12423;48.768;8.850;2023-04-25T02:45:33;120.18;;;113.88;;
24305;SDS011;12423;48.768;8.850;2023-04-25T02:47:35;108.75;;;102.93;;
24305;SDS011;12423;48.768;8.850;2023-04-25T02:49:36;127.72;;;120.72;;
24305;SDS011;12423;48.768;8.850;2023-04-25T02:51:37;98.43;;;92.90;;
24305;SDS011;12423;48.768;8.850;2023-04-25T02:53:39;90.63;;;85.75;;
24305;SDS011;12423;48.768;8.850;2023-04-25T02:55:40;83.57;;;78.00;;
24305;SDS011;12423;48.768;8.850;2023-04-25T02:57:41;82.13;;;77.80;;
24305;SDS011;12423;48.768;8.850;2023-04-25T02:59:46;107.97;;;102.32;;
24305;SDS011;12423;48.768;8.850;2023-04-25T03:01:47;99.90;;;94.28;;
24305;SDS011;12423;48.768;8.850;2023-04-25T03:03:48;49.40;;;46.13;;
24305;SDS011;12423;48.768;8.850;2023-04-25T03:05:50;121.90;;;115.03;;
24305;SDS011;12423;48.768;8.850;2023-04-25T03:07:55;116.90;;;110.78;;
24305;SDS011;12423;48.768;8.850;2023-04-25T03:09:56;103.88;;;98.38;;
24305;SDS011;12423;48.768;8.850;2023-04-25T03:11:58;111.13;;;105.18;;
24305;SDS011;12423;48.768;8.850;2023-04-25T03:13:59;62.00;;;58.50;;
24305;SDS011;12423;48.768;8.850;2023-04-25T03:16:01;110.50;;;104.32;;
24305;SDS011;12423;48.768;8.850;2023-04-25T03:18:02;78.25;;;74.35;;
24305;SDS011;12423;48.768;8.850;2023-04-25T03:20:03;89.35;;;84.40;;
24305;SDS011;12423;48.768;8.850;2023-04-25T03:22:06;100.97;;;95.35;;
24305;SDS011;12423;48.768;8.850;2023-04-25T03:24:07;67.70;;;63.72;;
24305;SDS011;12423;48.768;8.850;2023-04-25T03:26:08;97.90;;;92.45;;
24305;SDS011;12423;48.768;8.850;2023-04-25T03:28:09;47.58;;;44.65;;
24305;SDS011;12423;48.768;8.850;2023-04-25T03:30:10;109.88;;;103.35;;
24305;SDS011;12423;48.768;8.850;2023-04-25T03:32:13;100.63;;;94.97;;
24305;SDS011;12423;48.768;8.850;2023-04-25T03:34:14;92.40;;;86.60;;
24305;SDS011;12423;48.768;8.850;2023-04-25T03:36:16;95.30;;;89.70;;
24305;SDS011;12423;48.768;8.850;2023-04-25T03:38:17;97.20;;;91.75;;
24305;SDS011;12423;48.768;8.850;2023-04-25T03:40:19;139.20;;;131.40;;
24305;SDS011;12423;48.768;8.850;2023-04-25T03:42:39;149.15;;;140.30;;
24305;SDS011;12423;48.768;8.850;2023-04-25T03:44:40;140.38;;;132.05;;
24305;SDS011;12423;48.768;8.850;2023-04-25T03:46:41;144.80;;;136.43;;
24305;SDS011;12423;48.768;8.850;2023-04-25T03:48:43;144.27;;;135.25;;
24305;SDS011;12423;48.768;8.850;2023-04-25T03:50:49;130.85;;;123.38;;
24305;SDS011;12423;48.768;8.850;2023-04-25T03:52:50;151.77;;;142.95;;
24305;SDS011;12423;48.768;8.850;2023-04-25T03:54:51;166.77;;;156.65;;
24305;SDS011;12423;48.768;8.850;2023-04-25T03:56:55;184.70;;;171.85;;
24305;SDS011;12423;48.768;8.850;2023-04-25T03:59:00;172.73;;;160.82;;
24305;SDS011;12423;48.768;8.850;2023-04-25T04:01:03;166.98;;;155.40;;
24305;SDS011;12423;48.768;8.850;2023-04-25T04:03:07;158.68;;;148.05;;
24305;SDS011;12423;48.768;8.850;2023-04-25T04:05:09;159.13;;;148.50;;
24305;SDS011;12423;48.768;8.850;2023-04-25T04:07:14;157.90;;;147.00;;
24305;SDS011;12423;48.768;8.850;2023-04-25T04:09:18;140.45;;;131.07;;
24305;SDS011;12423;48.768;8.850;2023-04-25T04:11:21;73.68;;;68.75;;
24305;SDS011;12423;48.768;8.850;2023-04-25T04:13:22;82.10;;;77.57;;
24305;SDS011;12423;48.768;8.850;2023-04-25T04:15:23;65.78;;;62.22;;
24305;SDS011;12423;48.768;8.850;2023-04-25T04:17:25;112.95;;;106.15;;
24305;SDS011;12423;48.768;8.850;2023-04-25T04:19:26;87.50;;;82.30;;
24305;SDS011;12423;48.768;8.850;2023-04-25T04:21:38;82.93;;;78.03;;
24305;SDS011;12423;48.768;8.850;2023-04-25T04:23:40;117.30;;;110.28;;
24305;SDS011;12423;48.768;8.850;2023-04-25T04:25:43;96.75;;;91.55;;
24305;SDS011;12423;48.768;8.850;2023-04-25T04:28:01;84.30;;;79.57;;
24305;SDS011;12423;48.768;8.850;2023-04-25T04:30:28;86.25;;;81.28;;
24305;SDS011;12423;48.768;8.850;2023-04-25T04:32:34;79.13;;;74.45;;
24305;SDS011;12423;48.768;8.850;2023-04-25T04:34:38;44.60;;;41.85;;
24305;SDS011;12423;48.768;8.850;2023-04-25T04:36:40;66.55;;;62.47;;
24305;SDS011;12423;48.768;8.850;2023-04-25T04:38:41;54.53;;;51.22;;
24305;SDS011;12423;48.768;8.850;2023-04-25T04:40:47;60.42;;;56.83;;
24305;SDS011;12423;48.768;8.850;2023-04-25T04:43:07;111.47;;;105.32;;
24305;SDS011;12423;48.768;8.850;2023-04-25T04:45:13;134.68;;;126.53;;
24305;SDS011;12423;48.768;8.850;2023-04-25T04:47:33;123.20;;;115.65;;
24305;SDS011;12423;48.768;8.850;2023-04-25T04:49:47;131.48;;;123.28;;
24305;SDS011;12423;48.768;8.850;2023-04-25T04:52:05;157.20;;;145.93;;
24305;SDS011;12423;48.768;8.850;2023-04-25T04:54:32;163.88;;;152.85;;
24305;SDS011;12423;48.768;8.850;2023-04-25T04:56:48;182.38;;;169.15;;
24305;SDS011;12423;48.768;8.850;2023-04-25T04:59:03;194.98;;;181.73;;
24305;SDS011;12423;48.768;8.850;2023-04-25T05:01:04;201.07;;;186.75;;
24305;SDS011;12423;48.768;8.850;2023-04-25T05:03:28;182.10;;;169.52;;
24305;SDS011;12423;48.768;8.850;2023-04-25T05:05:45;108.50;;;100.43;;
24305;SDS011;12423;48.768;8.850;2023-04-25T05:08:00;132.30;;;123.07;;
24305;SDS011;12423;48.768;8.850;2023-04-25T05:10:16;124.97;;;117.00;;
24305;SDS011;12423;48.768;8.850;2023-04-25T05:12:30;135.45;;;125.95;;
24305;SDS011;12423;48.768;8.850;2023-04-25T05:14:49;174.50;;;163.18;;
24305;SDS011;12423;48.768;8.850;2023-04-25T05:17:07;15.35;;;8.80;;
24305;SDS011;12423;48.768;8.850;2023-04-25T05:19:15;55.08;;;51.35;;
24305;SDS011;12423;48.768;8.850;2023-04-25T05:21:22;30.88;;;28.38;;
24305;SDS011;12423;48.768;8.850;2023-04-25T05:23:44;25.70;;;23.13;;
24305;SDS011;12423;48.768;8.850;2023-04-25T05:26:16;21.55;;;16.50;;
24305;SDS011;12423;48.768;8.850;2023-04-25T05:28:26;13.32;;;7.32;;
24305;SDS011;12423;48.768;8.850;2023-04-25T05:30:46;9.43;;;4.85;;
24305;SDS011;12423;48.768;8.850;2023-04-25T05:33:02;13.68;;;5.95;;
24305;SDS011;12423;48.768;8.850;2023-04-25T05:35:03;8.15;;;4.47;;
24305;SDS011;12423;48.768;8.850;2023-04-25T05:37:14;8.57;;;4.05;;
24305;SDS011;12423;48.768;8.850;2023-04-25T05:39:26;8.90;;;4.68;;
24305;SDS011;12423;48.768;8.850;2023-04-25T05:41:43;7.85;;;3.72;;
24305;SDS011;12423;48.768;8.850;2023-04-25T05:44:22;9.60;;;4.95;;
24305;SDS011;12423;48.768;8.850;2023-04-25T05:46:37;11.57;;;5.43;;
24305;SDS011;12423;48.768;8.850;2023-04-25T05:48:54;10.52;;;4.65;;
24305;SDS011;12423;48.768;8.850;2023-04-25T05:51:15;9.38;;;4.80;;
24305;SDS011;12423;48.768;8.850;2023-04-25T05:53:39;11.75;;;5.57;;
24305;SDS011;12423;48.768;8.850;2023-04-25T05:55:41;8.27;;;5.15;;
24305;SDS011;12423;48.768;8.850;2023-04-25T05:57:55;10.35;;;4.35;;
24305;SDS011;12423;48.768;8.850;2023-04-25T05:59:57;160.13;;;150.90;;
24305;SDS011;12423;48.768;8.850;2023-04-25T06:02:14;173.68;;;163.25;;
24305;SDS011;12423;48.768;8.850;2023-04-25T06:04:16;195.95;;;182.75;;
24305;SDS011;12423;48.768;8.850;2023-04-25T06:06:17;216.07;;;201.45;;
24305;SDS011;12423;48.768;8.850;2023-04-25T06:08:19;197.38;;;183.68;;
24305;SDS011;12423;48.768;8.850;2023-04-25T06:10:20;233.63;;;217.23;;
24305;SDS011;12423;48.768;8.850;2023-04-25T06:12:21;202.25;;;188.55;;
24305;SDS011;12423;48.768;8.850;2023-04-25T06:14:28;116.40;;;109.90;;
24305;SDS011;12423;48.768;8.850;2023-04-25T06:16:29;129.57;;;122.05;;
24305;SDS011;12423;48.768;8.850;2023-04-25T06:18:30;184.18;;;172.13;;
24305;SDS011;12423;48.768;8.850;2023-04-25T06:20:32;166.60;;;156.55;;
24305;SDS011;12423;48.768;8.850;2023-04-25T06:22:34;151.48;;;142.20;;
24305;SDS011;12423;48.768;8.850;2023-04-25T06:24:36;166.98;;;156.15;;
24305;SDS011;12423;48.768;8.850;2023-04-25T06:26:38;181.85;;;169.10;;
24305;SDS011;12423;48.768;8.850;2023-04-25T06:28:40;151.85;;;142.85;;
24305;SDS011;12423;48.768;8.850;2023-04-25T06:30:41;120.82;;;114.15;;
24305;SDS011;12423;48.768;8.850;2023-04-25T06:32:47;129.95;;;122.88;;
24305;SDS011;12423;48.768;8.850;2023-04-25T06:34:48;66.88;;;63.30;;
24305;SDS011;12423;48.768;8.850;2023-04-25T06:36:49;123.10;;;115.95;;
24305;SDS011;12423;48.768;8.850;2023-04-25T06:38:51;132.02;;;124.68;;
24305;SDS011;12423;48.768;8.850;2023-04-25T06:40:53;154.80;;;145.65;;
24305;SDS011;12423;48.768;8.850;2023-04-25T06:42:54;104.78;;;98.72;;
24305;SDS011;12423;48.768;8.850;2023-04-25T06:45:13;121.20;;;114.32;;
24305;SDS011;12423;48.768;8.850;2023-04-25T06:47:15;120.07;;;113.07;;
24305;SDS011;12423;48.768;8.850;2023-04-25T06:49:17;59.65;;;56.33;;
24305;SDS011;12423;48.768;8.850;2023-04-25T06:51:19;48.25;;;45.50;;
24305;SDS011;12423;48.768;8.850;2023-04-25T06:53:20;69.22;;;65.57;;
24305;SDS011;12423;48.768;8.850;2023-04-25T06:55:27;52.63;;;49.42;;
24305;SDS011;12423;48.768;8.850;2023-04-25T06:57:48;61.33;;;57.83;;
24305;SDS011;12423;48.768;8.850;2023-04-25T07:00:25;65.18;;;61.38;;
24305;SDS011;12423;48.768;8.850;2023-04-25T07:02:27;5.03;;;1.90;;
24305;SDS011;12423;48.768;8.850;2023-04-25T07:04:29;3.63;;;1.50;;
24305;SDS011;12423;48.768;8.850;2023-04-25T07:06:32;3.75;;;1.42;;
24305;SDS011;12423;48.768;8.850;2023-04-25T07:08:34;3.22;;;1.20;;
24305;SDS011;12423;48.768;8.850;2023-04-25T07:10:35;3.30;;;1.23;;
24305;SDS011;12423;48.768;8.850;2023-04-25T07:12:36;4.50;;;1.90;;
24305;SDS011;12423;48.768;8.850;2023-04-25T07:14:39;3.33;;;1.42;;
24305;SDS011;12423;48.768;8.850;2023-04-25T07:16:41;5.25;;;2.15;;
24305;SDS011;12423;48.768;8.850;2023-04-25T07:18:43;6.45;;;2.47;;
24305;SDS011;12423;48.768;8.850;2023-04-25T07:20:44;4.60;;;1.70;;
24305;SDS011;12423;48.768;8.850;2023-04-25T07:22:46;5.80;;;2.35;;
24305;SDS011;12423;48.768;8.850;2023-04-25T07:24:47;5.75;;;2.15;;
24305;SDS011;12423;48.768;8.850;2023-04-25T07:26:50;7.40;;;3.83;;
24305;SDS011;12423;48.768;8.850;2023-04-25T07:29:04;5.03;;;1.92;;
24305;SDS011;12423;48.768;8.850;2023-04-25T07:31:06;5.15;;;1.90;;
24305;SDS011;12423;48.768;8.850;2023-04-25T07:33:07;4.10;;;1.63;;
24305;SDS011;12423;48.768;8.850;2023-04-25T07:35:08;4.43;;;1.73;;
24305;SDS011;12423;48.768;8.850;2023-04-25T07:37:09;4.63;;;1.70;;
24305;SDS011;12423;48.768;8.850;2023-04-25T07:39:21;3.53;;;1.30;;
24305;SDS011;12423;48.768;8.850;2023-04-25T07:41:23;5.13;;;1.88;;
24305;SDS011;12423;48.768;8.850;2023-04-25T07:43:24;4.60;;;1.77;;
24305;SDS011;12423;48.768;8.850;2023-04-25T07:45:31;5.15;;;1.83;;
24305;SDS011;12423;48.768;8.850;2023-04-25T07:47:33;4.60;;;1.83;;
24305;SDS011;12423;48.768;8.850;2023-04-25T07:49:37;5.13;;;1.85;;
24305;SDS011;12423;48.768;8.850;2023-04-25T07:51:38;3.28;;;1.20;;
24305;SDS011;12423;48.768;8.850;2023-04-25T07:53:44;3.63;;;1.48;;
24305;SDS011;12423;48.768;8.850;2023-04-25T07:55:47;4.75;;;1.67;;
24305;SDS011;12423;48.768;8.850;2023-04-25T07:57:51;2.60;;;0.98;;
24305;SDS011;12423;48.768;8.850;2023-04-25T07:59:52;8.60;;;7.78;;
24305;SDS011;12423;48.768;8.850;2023-04-25T08:01:54;3.50;;;1.45;;
24305;SDS011;12423;48.768;8.850;2023-04-25T08:03:57;8.52;;;3.63;;
24305;SDS011;12423;48.768;8.850;2023-04-25T08:06:08;7.60;;;2.95;;
24305;SDS011;12423;48.768;8.850;2023-04-25T08:08:17;7.20;;;2.83;;
24305;SDS011;12423;48.768;8.850;2023-04-25T08:10:18;8.30;;;3.38;;
24305;SDS011;12423;48.768;8.850;2023-04-25T08:12:23;11.50;;;4.35;;
24305;SDS011;12423;48.768;8.850;2023-04-25T08:14:25;75.22;;;7.13;;
24305;SDS011;12423;48.768;8.850;2023-04-25T08:16:27;8.93;;;3.80;;
24305;SDS011;12423;48.768;8.850;2023-04-25T08:18:28;7.70;;;3.33;;
24305;SDS011;12423;48.768;8.850;2023-04-25T08:20:29;7.05;;;2.83;;
24305;SDS011;12423;48.768;8.850;2023-04-25T08:22:32;9.60;;;4.03;;
24305;SDS011;12423;48.768;8.850;2023-04-25T08:24:57;10.82;;;4.38;;
24305;SDS011;12423;48.768;8.850;2023-04-25T08:26:58;4.47;;;1.80;;
24305;SDS011;12423;48.768;8.850;2023-04-25T08:29:01;4.05;;;1.40;;
24305;SDS011;12423;48.768;8.850;2023-04-25T08:31:03;4.35;;;1.80;;
24305;SDS011;12423;48.768;8.850;2023-04-25T08:33:12;3.72;;;1.67;;
24305;SDS011;12423;48.768;8.850;2023-04-25T08:35:39;3.70;;;1.48;;
24305;SDS011;12423;48.768;8.850;2023-04-25T08:37:41;3.00;;;1.20;;
24305;SDS011;12423;48.768;8.850;2023-04-25T08:39:48;4.93;;;2.13;;
24305;SDS011;12423;48.768;8.850;2023-04-25T08:41:52;3.70;;;1.63;;
24305;SDS011;12423;48.768;8.850;2023-04-25T08:43:54;5.68;;;3.28;;
24305;SDS011;12423;48.768;8.850;2023-04-25T08:45:58;4.50;;;1.83;;
24305;SDS011;12423;48.768;8.850;2023-04-25T08:48:15;5.28;;;1.92;;
24305;SDS011;12423;48.768;8.850;2023-04-25T08:50:17;5.50;;;2.05;;
24305;SDS011;12423;48.768;8.850;2023-04-25T08:52:23;5.47;;;1.95;;
24305;SDS011;12423;48.768;8.850;2023-04-25T08:54:27;6.80;;;2.38;;
24305;SDS011;12423;48.768;8.850;2023-04-25T08:56:29;5.32;;;1.85;;
24305;SDS011;12423;48.768;8.850;2023-04-25T08:58:36;8.00;;;2.75;;
24305;SDS011;12423;48.768;8.850;2023-04-25T09:00:38;6.07;;;2.28;;
24305;SDS011;12423;48.768;8.850;2023-04-25T09:02:40;6.03;;;2.05;;
24305;SDS011;12423;48.768;8.850;2023-04-25T09:04:43;18.17;;;16.60;;
24305;SDS011;12423;48.768;8.850;2023-04-25T09:06:45;6.03;;;2.28;;
24305;SDS011;12423;48.768;8.850;2023-04-25T09:08:46;7.88;;;2.88;;
24305;SDS011;12423;48.768;8.850;2023-04-25T09:10:50;11.02;;;4.10;;
24305;SDS011;12423;48.768;8.850;2023-04-25T09:13:01;10.75;;;3.90;;
24305;SDS011;12423;48.768;8.850;2023-04-25T09:15:12;8.52;;;2.85;;
24305;SDS011;12423;48.768;8.850;2023-04-25T09:17:41;7.32;;;2.67;;
24305;SDS011;12423;48.768;8.850;2023-04-25T09:19:45;10.10;;;3.47;;
24305;SDS011;12423;48.768;8.850;2023-04-25T09:21:55;27.60;;;25.92;;
24305;SDS011;12423;48.768;8.850;2023-04-25T09:23:57;10.02;;;3.75;;
24305;SDS011;12423;48.768;8.850;2023-04-25T09:26:00;6.78;;;2.75;;
24305;SDS011;12423;48.768;8.850;2023-04-25T09:28:03;7.45;;;2.50;;
24305;SDS011;12423;48.768;8.850;2023-04-25T09:30:06;8.13;;;2.60;;
24305;SDS011;12423;48.768;8.850;2023-04-25T09:32:37;8.50;;;2.90;;
24305;SDS011;12423;48.768;8.850;2023-04-25T09:34:39;8.70;;;2.78;;
24305;SDS011;12423;48.768;8.850;2023-04-25T09:36:41;8.95;;;3.00;;
24305;SDS011;12423;48.768;8.850;2023-04-25T09:39:01;9.80;;;3.30;;
24305;SDS011;12423;48.768;8.850;2023-04-25T09:41:04;7.82;;;2.75;;
24305;SDS011;12423;48.768;8.850;2023-04-25T09:43:18;8.82;;;2.80;;
24305;SDS011;12423;48.768;8.850;2023-04-25T09:45:24;10.13;;;3.50;;
24305;SDS011;12423;48.768;8.850;2023-04-25T09:47:26;11.25;;;3.58;;
24305;SDS011;12423;48.768;8.850;2023-04-25T09:49:29;11.40;;;3.90;;
24305;SDS011;12423;48.768;8.850;2023-04-25T09:51:41;25.50;;;23.33;;
24305;SDS011;12423;48.768;8.850;2023-04-25T09:53:45;124.88;;;115.95;;
24305;SDS011;12423;48.768;8.850;2023-04-25T09:55:53;133.45;;;122.70;;
24305;SDS011;12423;48.768;8.850;2023-04-25T09:57:54;150.18;;;138.45;;
24305;SDS011;12423;48.768;8.850;2023-04-25T09:59:57;166.77;;;152.85;;
24305;SDS011;12423;48.768;8.850;2023-04-25T10:02:05;149.88;;;137.30;;
24305;SDS011;12423;48.768;8.850;2023-04-25T10:04:10;149.05;;;137.10;;
24305;SDS011;12423;48.768;8.850;2023-04-25T10:06:32;136.52;;;125.53;;
24305;SDS011;12423;48.768;8.850;2023-04-25T10:08:36;98.05;;;89.03;;
24305;SDS011;12423;48.768;8.850;2023-04-25T10:10:37;134.55;;;123.70;;
24305;SDS011;12423;48.768;8.850;2023-04-25T10:12:40;13.18;;;9.73;;
24305;SDS011;12423;48.768;8.850;2023-04-25T10:14:44;122.25;;;112.75;;
24305;SDS011;12423;48.768;8.850;2023-04-25T10:16:45;157.15;;;144.95;;
24305;SDS011;12423;48.768;8.850;2023-04-25T10:18:47;33.10;;;29.55;;
24305;SDS011;12423;48.768;8.850;2023-04-25T10:20:49;140.85;;;129.80;;
24305;SDS011;12423;48.768;8.850;2023-04-25T10:22:50;153.00;;;140.43;;
24305;SDS011;12423;48.768;8.850;2023-04-25T10:24:54;189.98;;;174.82;;
24305;SDS011;12423;48.768;8.850;2023-04-25T10:26:56;174.90;;;160.25;;
24305;SDS011;12423;48.768;8.850;2023-04-25T10:28:58;177.55;;;161.95;;
24305;SDS011;12423;48.768;8.850;2023-04-25T10:31:01;185.32;;;169.75;;
24305;SDS011;12423;48.768;8.850;2023-04-25T10:33:16;175.00;;;161.02;;
24305;SDS011;12423;48.768;8.850;2023-04-25T10:35:19;201.35;;;183.65;;
24305;SDS011;12423;48.768;8.850;2023-04-25T10:37:33;184.73;;;169.18;;
24305;SDS011;12423;48.768;8.850;2023-04-25T10:39:35;213.48;;;195.60;;
24305;SDS011;12423;48.768;8.850;2023-04-25T10:44:00;207.30;;;190.38;;
24305;SDS011;12423;48.768;8.850;2023-04-25T10:46:02;214.63;;;196.45;;
24305;SDS011;12423;48.768;8.850;2023-04-25T10:48:03;214.95;;;196.77;;
24305;SDS011;12423;48.768;8.850;2023-04-25T10:50:05;231.90;;;213.95;;
24305;SDS011;12423;48.768;8.850;2023-04-25T10:54:26;200.38;;;184.57;;
24305;SDS011;12423;48.768;8.850;2023-04-25T10:56:28;219.07;;;201.80;;
24305;SDS011;12423;48.768;8.850;2023-04-25T10:58:34;223.43;;;204.43;;
24305;SDS011;12423;48.768;8.850;2023-04-25T11:00:35;206.18;;;188.65;;
24305;SDS011;12423;48.768;8.850;2023-04-25T11:02:41;216.05;;;197.93;;
24305;SDS011;12423;48.768;8.850;2023-04-25T11:04:50;231.43;;;212.25;;
24305;SDS011;12423;48.768;8.850;2023-04-25T11:07:01;216.10;;;197.02;;
24305;SDS011;12423;48.768;8.850;2023-04-25T11:09:10;223.88;;;206.02;;
24305;SDS011;12423;48.768;8.850;2023-04-25T11:11:13;225.75;;;205.52;;
24305;SDS011;12423;48.768;8.850;2023-04-25T11:13:15;218.90;;;200.13;;
24305;SDS011;12423;48.768;8.850;2023-04-25T11:15:17;202.20;;;186.23;;
24305;SDS011;12423;48.768;8.850;2023-04-25T11:17:18;222.38;;;204.43;;
24305;SDS011;12423;48.768;8.850;2023-04-25T11:19:20;212.80;;;195.38;;
24305;SDS011;12423;48.768;8.850;2023-04-25T11:21:21;218.68;;;201.65;;
24305;SDS011;12423;48.768;8.850;2023-04-25T11:23:22;211.82;;;195.75;;
24305;SDS011;12423;48.768;8.850;2023-04-25T11:25:23;195.30;;;180.27;;
24305;SDS011;12423;48.768;8.850;2023-04-25T11:27:25;185.40;;;171.00;;
24305;SDS011;12423;48.768;8.850;2023-04-25T11:29:26;205.60;;;189.90;;
24305;SDS011;12423;48.768;8.850;2023-04-25T11:31:28;203.50;;;187.57;;
24305;SDS011;12423;48.768;8.850;2023-04-25T11:33:29;179.30;;;165.32;;
24305;SDS011;12423;48.768;8.850;2023-04-25T11:35:30;194.77;;;179.05;;
24305;SDS011;12423;48.768;8.850;2023-04-25T11:37:33;213.90;;;197.50;;
24305;SDS011;12423;48.768;8.850;2023-04-25T11:39:35;215.45;;;197.90;;
24305;SDS011;12423;48.768;8.850;2023-04-25T11:41:37;225.05;;;207.88;;
24305;SDS011;12423;48.768;8.850;2023-04-25T11:43:38;215.35;;;199.55;;
24305;SDS011;12423;48.768;8.850;2023-04-25T11:45:39;222.88;;;205.60;;
24305;SDS011;12423;48.768;8.850;2023-04-25T11:47:41;238.88;;;220.20;;
24305;SDS011;12423;48.768;8.850;2023-04-25T11:49:42;243.25;;;224.85;;
24305;SDS011;12423;48.768;8.850;2023-04-25T11:51:44;223.18;;;205.30;;
24305;SDS011;12423;48.768;8.850;2023-04-25T11:53:46;226.15;;;208.70;;
24305;SDS011;12423;48.768;8.850;2023-04-25T11:55:47;242.82;;;224.63;;
24305;SDS011;12423;48.768;8.850;2023-04-25T11:57:49;225.80;;;209.57;;
24305;SDS011;12423;48.768;8.850;2023-04-25T11:59:50;230.38;;;212.77;;
24305;SDS011;12423;48.768;8.850;2023-04-25T12:01:52;217.18;;;201.00;;
24305;SDS011;12423;48.768;8.850;2023-04-25T12:03:53;255.05;;;236.23;;
24305;SDS011;12423;48.768;8.850;2023-04-25T12:05:54;244.23;;;224.73;;
24305;SDS011;12423;48.768;8.850;2023-04-25T12:10:15;227.50;;;210.02;;
24305;SDS011;12423;48.768;8.850;2023-04-25T12:12:17;228.35;;;210.75;;
24305;SDS011;12423;48.768;8.850;2023-04-25T12:14:22;251.48;;;233.65;;
24305;SDS011;12423;48.768;8.850;2023-04-25T12:16:24;237.68;;;219.25;;
24305;SDS011;12423;48.768;8.850;2023-04-25T12:18:25;233.13;;;215.95;;